createdAt,value
2018-01-30T00:01:01.918Z,6.50
2018-01-30T00:03:29.394Z,7.53
2018-01-30T00:05:56.866Z,6.70
2018-01-30T00:08:24.366Z,5.20
2018-01-30T00:10:51.823Z,7.13
2018-01-30T00:13:19.300Z,6.77
2018-01-30T00:15:46.785Z,4.97
2018-01-30T00:18:14.260Z,7.67
2018-01-30T00:20:41.719Z,6.60
2018-01-30T00:23:09.194Z,6.83
2018-01-30T00:25:36.649Z,6.40
2018-01-30T00:28:04.122Z,6.43
2018-01-30T00:30:31.583Z,6.20
2018-01-30T00:32:59.058Z,7.73
2018-01-30T00:35:26.519Z,6.70
2018-01-30T00:37:53.996Z,6.53
2018-01-30T00:40:21.459Z,6.73
2018-01-30T00:42:48.950Z,7.03
2018-01-30T00:45:16.410Z,7.37
2018-01-30T00:47:43.898Z,7.07
2018-01-30T00:50:11.354Z,8.83
2018-01-30T00:52:38.826Z,7.37
2018-01-30T00:55:06.291Z,7.40
2018-01-30T00:57:33.746Z,7.60
2018-01-30T01:00:01.227Z,8.20
2018-01-30T01:02:28.678Z,8.40
2018-01-30T01:04:56.152Z,8.50
2018-01-30T01:07:23.698Z,9.30
2018-01-30T01:09:51.182Z,10.37
2018-01-30T01:12:18.650Z,10.40
2018-01-30T01:14:46.135Z,11.33
2018-01-30T01:17:13.606Z,10.63
2018-01-30T01:19:41.091Z,11.87
2018-01-30T01:22:08.560Z,10.20
2018-01-30T01:24:36.046Z,11.00
2018-01-30T01:27:03.502Z,10.20
2018-01-30T01:29:30.978Z,8.20
2018-01-30T01:31:58.434Z,8.10
2018-01-30T01:34:25.908Z,8.47
2018-01-30T01:36:53.396Z,8.70
2018-01-30T01:39:20.875Z,9.00
2018-01-30T01:41:48.326Z,8.80
2018-01-30T01:44:15.798Z,9.20
2018-01-30T01:46:43.252Z,9.80
2018-01-30T01:49:10.787Z,9.80
2018-01-30T01:51:38.254Z,9.83
2018-01-30T01:54:05.730Z,10.57
2018-01-30T01:56:33.195Z,11.00
2018-01-30T01:59:00.681Z,10.77
2018-01-30T02:01:28.151Z,11.10
2018-01-30T02:03:55.631Z,11.70
2018-01-30T02:06:23.096Z,11.23
2018-01-30T02:08:50.575Z,11.77
2018-01-30T02:11:18.022Z,11.50
2018-01-30T02:13:45.507Z,12.23
2018-01-30T02:16:12.971Z,11.60
2018-01-30T02:18:40.430Z,11.13
2018-01-30T02:21:07.915Z,11.03
2018-01-30T02:23:35.371Z,12.23
2018-01-30T02:26:02.856Z,12.60
2018-01-30T02:28:30.314Z,11.90
2018-01-30T02:30:57.787Z,12.63
2018-01-30T02:33:25.251Z,11.57
2018-01-30T02:35:52.723Z,11.90
2018-01-30T02:38:20.183Z,12.17
2018-01-30T02:40:47.664Z,12.77
2018-01-30T02:43:15.126Z,13.63
2018-01-30T02:45:42.609Z,12.13
2018-01-30T02:48:10.075Z,12.87
2018-01-30T02:50:37.567Z,12.57
2018-01-30T02:53:05.032Z,12.60
2018-01-30T02:55:32.505Z,12.77
2018-01-30T02:57:59.967Z,12.50
2018-01-30T03:00:27.447Z,13.80
2018-01-30T03:02:54.902Z,13.93
2018-01-30T03:05:22.386Z,14.47
2018-01-30T03:07:49.842Z,13.00
2018-01-30T03:10:17.324Z,13.73
2018-01-30T03:12:44.834Z,13.33
2018-01-30T03:15:12.286Z,14.53
2018-01-30T03:17:39.747Z,14.00
2018-01-30T03:22:36.432Z,15.17
2018-01-30T03:25:03.919Z,14.67
2018-01-30T03:27:31.380Z,13.37
2018-01-30T03:29:58.887Z,12.97
2018-01-30T03:32:26.351Z,13.83
2018-01-30T03:34:53.830Z,13.67
2018-01-30T03:37:21.298Z,12.63
2018-01-30T03:39:48.756Z,12.23
2018-01-30T03:42:16.234Z,12.63
2018-01-30T03:44:43.705Z,13.20
2018-01-30T03:47:11.179Z,12.83
2018-01-30T03:49:38.638Z,13.93
2018-01-30T03:52:06.119Z,13.13
2018-01-30T03:54:33.579Z,14.43
2018-01-30T03:57:01.066Z,14.43
2018-01-30T03:59:28.530Z,13.00
2018-01-30T04:01:56.010Z,13.07
2018-01-30T04:04:23.470Z,11.53
2018-01-30T04:06:50.946Z,11.90
2018-01-30T04:09:19.327Z,11.57
2018-01-30T04:11:46.806Z,11.40
2018-01-30T04:14:14.262Z,11.17
2018-01-30T04:16:41.761Z,11.83
2018-01-30T04:19:09.226Z,11.77
2018-01-30T04:21:36.762Z,11.73
2018-01-30T04:24:04.268Z,12.10
2018-01-30T04:26:31.781Z,12.30
2018-01-30T04:28:59.255Z,12.53
2018-01-30T04:31:26.738Z,12.47
2018-01-30T04:33:54.195Z,11.67
2018-01-30T04:36:21.675Z,13.17
2018-01-30T04:38:49.138Z,12.07
2018-01-30T04:41:16.614Z,12.37
2018-01-30T04:43:44.079Z,12.57
2018-01-30T04:46:11.555Z,13.27
2018-01-30T04:48:39.018Z,12.90
2018-01-30T04:51:06.493Z,13.33
2018-01-30T04:53:33.955Z,12.80
2018-01-30T04:56:01.434Z,11.30
2018-01-30T04:58:28.890Z,12.10
2018-01-30T05:00:56.387Z,11.13
2018-01-30T05:03:23.850Z,11.37
2018-01-30T05:05:51.302Z,11.90
2018-01-30T05:08:18.799Z,11.20
2018-01-30T05:10:46.257Z,11.03
2018-01-30T05:13:13.737Z,11.57
2018-01-30T05:15:41.202Z,12.27
2018-01-30T05:18:08.676Z,12.97
2018-01-30T05:20:36.138Z,14.00
2018-01-30T05:23:03.614Z,15.53
2018-01-30T05:25:31.078Z,16.13
2018-01-30T05:27:58.566Z,15.93
2018-01-30T05:30:26.032Z,17.57
2018-01-30T05:32:53.507Z,16.63
2018-01-30T05:35:20.978Z,16.67
2018-01-30T05:37:48.458Z,18.53
2018-01-30T05:40:15.921Z,16.67
2018-01-30T05:42:43.406Z,15.83
2018-01-30T05:45:10.872Z,15.00
2018-01-30T05:47:38.356Z,15.47
2018-01-30T05:50:05.860Z,15.03
2018-01-30T05:52:33.379Z,15.47
2018-01-30T05:55:00.819Z,15.17
2018-01-30T05:57:28.303Z,13.70
2018-01-30T05:59:55.770Z,13.97
2018-01-30T06:02:27.974Z,13.97
2018-01-30T06:04:55.437Z,13.40
2018-01-30T06:07:22.916Z,12.30
2018-01-30T06:09:50.374Z,12.97
2018-01-30T06:12:17.855Z,12.30
2018-01-30T06:14:45.322Z,13.80
2018-01-30T06:17:12.808Z,12.80
2018-01-30T06:19:40.281Z,12.90
2018-01-30T06:22:07.774Z,12.53
2018-01-30T06:24:35.234Z,13.17
2018-01-30T06:27:02.724Z,12.23
2018-01-30T06:29:30.255Z,12.23
2018-01-30T06:31:57.716Z,13.90
2018-01-30T06:34:25.255Z,14.23
2018-01-30T06:36:52.715Z,14.87
2018-01-30T06:39:20.199Z,15.73
2018-01-30T06:41:47.658Z,12.97
2018-01-30T06:44:15.138Z,10.77
2018-01-30T06:46:42.613Z,12.37
2018-01-30T06:49:10.098Z,11.17
2018-01-30T06:51:37.591Z,11.37
2018-01-30T06:54:05.075Z,11.50
2018-01-30T06:56:32.545Z,11.37
2018-01-30T06:59:00.029Z,12.47
2018-01-30T07:01:27.491Z,12.17
2018-01-30T07:03:54.966Z,12.27
2018-01-30T07:06:22.427Z,11.73
2018-01-30T07:08:49.909Z,11.33
2018-01-30T07:11:17.379Z,10.20
2018-01-30T07:13:44.855Z,9.73
2018-01-30T07:16:12.307Z,8.40
2018-01-30T07:18:39.786Z,8.90
2018-01-30T07:21:07.242Z,9.83
2018-01-30T07:23:34.723Z,10.87
2018-01-30T07:26:02.183Z,9.73
2018-01-30T07:28:29.669Z,10.20
2018-01-30T07:30:57.127Z,9.60
2018-01-30T07:33:24.599Z,9.13
2018-01-30T07:35:52.054Z,10.50
2018-01-30T07:38:19.547Z,9.53
2018-01-30T07:40:47.021Z,8.87
2018-01-30T07:43:14.511Z,9.67
2018-01-30T07:45:41.970Z,10.27
2018-01-30T07:48:09.463Z,10.10
2018-01-30T07:50:36.919Z,9.70
2018-01-30T07:53:05.370Z,11.23
2018-01-30T07:55:32.851Z,9.73
2018-01-30T07:58:00.307Z,9.00
2018-01-30T08:00:27.798Z,9.60
2018-01-30T08:02:55.255Z,9.27
2018-01-30T08:05:22.730Z,9.20
2018-01-30T08:07:50.196Z,9.33
2018-01-30T08:10:17.703Z,10.10
2018-01-30T08:12:45.166Z,9.23
2018-01-30T08:15:12.651Z,15.57
2018-01-30T08:17:40.112Z,10.13
2018-01-30T08:20:07.596Z,12.77
2018-01-30T08:22:35.055Z,9.13
2018-01-30T08:25:02.530Z,9.43
2018-01-30T08:27:29.990Z,8.60
2018-01-30T08:29:57.472Z,8.60
2018-01-30T08:32:24.943Z,9.13
2018-01-30T08:34:52.426Z,7.73
2018-01-30T08:37:19.882Z,8.03
2018-01-30T08:39:47.454Z,8.10
2018-01-30T08:42:14.915Z,7.63
2018-01-30T08:44:42.382Z,8.00
2018-01-30T08:47:09.847Z,8.03
2018-01-30T08:49:37.365Z,8.10
2018-01-30T08:52:04.851Z,7.93
2018-01-30T08:54:32.359Z,8.23
2018-01-30T08:56:59.814Z,8.00
2018-01-30T08:59:27.307Z,7.30
2018-01-30T09:01:54.762Z,7.73
2018-01-30T09:04:22.242Z,7.53
2018-01-30T09:06:49.723Z,7.87
2018-01-30T09:09:17.202Z,7.70
2018-01-30T09:11:44.673Z,7.73
2018-01-30T09:14:12.143Z,6.90
2018-01-30T09:16:39.603Z,7.40
2018-01-30T09:19:07.070Z,7.67
2018-01-30T09:21:34.563Z,11.83
2018-01-30T09:24:02.045Z,13.90
2018-01-30T09:26:29.530Z,13.90
2018-01-30T09:28:56.987Z,12.40
2018-01-30T09:31:24.462Z,8.57
2018-01-30T09:33:51.944Z,6.27
2018-01-30T09:36:19.439Z,6.80
2018-01-30T09:38:46.906Z,7.03
2018-01-30T09:41:14.413Z,6.60
2018-01-30T09:46:15.766Z,6.77
2018-01-30T09:48:43.219Z,7.03
2018-01-30T09:51:10.686Z,6.30
2018-01-30T09:53:38.175Z,6.43
2018-01-30T09:56:05.669Z,5.50
2018-01-30T09:58:33.127Z,5.80
2018-01-30T10:01:00.635Z,6.33
2018-01-30T10:03:28.089Z,7.23
2018-01-30T10:05:55.599Z,6.90
2018-01-30T10:08:23.048Z,6.37
2018-01-30T10:10:50.522Z,7.77
2018-01-30T10:13:17.985Z,6.90
2018-01-30T10:15:45.463Z,7.73
2018-01-30T10:18:12.918Z,7.83
2018-01-30T10:20:40.399Z,7.53
2018-01-30T10:23:07.870Z,7.83
2018-01-30T10:25:35.347Z,7.17
2018-01-30T10:28:02.807Z,8.20
2018-01-30T10:30:30.279Z,7.33
2018-01-30T10:32:57.732Z,8.23
2018-01-30T10:35:25.198Z,8.10
2018-01-30T10:37:53.212Z,8.80
2018-01-30T10:40:20.718Z,7.77
2018-01-30T10:42:48.171Z,7.83
2018-01-30T10:45:15.695Z,8.43
2018-01-30T10:47:43.231Z,8.37
2018-01-30T10:50:10.703Z,8.10
2018-01-30T10:52:38.174Z,7.83
2018-01-30T10:55:05.623Z,7.60
2018-01-30T10:57:33.110Z,7.33
2018-01-30T11:00:00.583Z,7.30
2018-01-30T11:02:28.082Z,7.57
2018-01-30T11:04:55.596Z,7.07
2018-01-30T11:07:23.042Z,7.40
2018-01-30T11:09:50.498Z,6.57
2018-01-30T11:12:17.967Z,5.87
2018-01-30T11:14:45.423Z,6.47
2018-01-30T11:17:12.894Z,5.80
2018-01-30T11:19:40.347Z,6.33
2018-01-30T11:22:07.855Z,4.80
2018-01-30T11:24:35.301Z,4.43
2018-01-30T11:27:02.767Z,3.90
2018-01-30T11:29:30.214Z,4.30
2018-01-30T11:31:57.684Z,3.83
2018-01-30T11:34:25.163Z,3.60
2018-01-30T11:36:52.639Z,4.00
2018-01-30T11:39:20.099Z,3.80
2018-01-30T11:41:47.569Z,3.77
2018-01-30T11:44:15.026Z,3.53
2018-01-30T11:46:43.111Z,3.33
2018-01-30T11:49:10.567Z,3.80
2018-01-30T11:51:38.044Z,4.30
2018-01-30T11:54:05.490Z,3.57
2018-01-30T11:56:32.970Z,3.50
2018-01-30T11:59:00.414Z,3.60
2018-01-30T12:01:27.887Z,2.73
2018-01-30T12:03:55.444Z,3.60
2018-01-30T12:06:22.895Z,3.33
2018-01-30T12:08:50.381Z,3.27
2018-01-30T12:11:17.843Z,3.30
2018-01-30T12:13:45.320Z,3.47
2018-01-30T12:16:12.770Z,3.93
2018-01-30T12:18:40.250Z,3.73
2018-01-30T12:21:07.705Z,3.97
2018-01-30T12:23:35.177Z,4.13
2018-01-30T12:26:02.691Z,4.13
2018-01-30T12:28:30.171Z,4.20
2018-01-30T12:30:57.630Z,3.80
2018-01-30T12:33:25.103Z,4.00
2018-01-30T12:35:53.655Z,4.17
2018-01-30T12:38:21.143Z,4.37
2018-01-30T12:40:48.601Z,3.97
2018-01-30T12:43:16.076Z,4.07
2018-01-30T12:45:43.531Z,3.70
2018-01-30T12:48:11.003Z,3.33
2018-01-30T12:50:38.463Z,3.83
2018-01-30T12:53:05.939Z,4.50
2018-01-30T12:55:33.399Z,4.53
2018-01-30T12:58:00.864Z,4.23
2018-01-30T13:00:28.321Z,4.10
2018-01-30T13:02:55.791Z,4.63
2018-01-30T13:05:23.244Z,4.70
2018-01-30T13:07:50.715Z,4.60
2018-01-30T13:10:18.175Z,4.40
2018-01-30T13:12:45.647Z,5.03
2018-01-30T13:15:13.098Z,4.83
2018-01-30T13:17:40.571Z,4.27
2018-01-30T13:20:08.027Z,4.27
2018-01-30T13:22:35.513Z,4.77
2018-01-30T13:25:02.974Z,5.03
2018-01-30T13:27:30.455Z,4.40
2018-01-30T13:29:58.760Z,5.03
2018-01-30T13:32:26.296Z,4.73
2018-01-30T13:34:53.812Z,4.90
2018-01-30T13:37:21.266Z,4.70
2018-01-30T13:39:48.739Z,5.30
2018-01-30T13:42:16.196Z,5.50
2018-01-30T13:44:43.691Z,5.17
2018-01-30T13:47:11.155Z,5.60
2018-01-30T13:49:38.635Z,6.00
2018-01-30T13:52:06.151Z,6.30
2018-01-30T13:54:33.629Z,7.20
2018-01-30T13:57:01.091Z,6.60
2018-01-30T13:59:28.558Z,6.87
2018-01-30T14:01:56.022Z,5.57
2018-01-30T14:04:23.500Z,5.70
2018-01-30T14:06:50.998Z,5.80
2018-01-30T14:09:18.468Z,5.97
2018-01-30T14:11:45.926Z,5.70
2018-01-30T14:14:13.407Z,6.07
2018-01-30T14:16:40.886Z,6.07
2018-01-30T14:19:08.363Z,6.60
2018-01-30T14:21:35.855Z,6.43
2018-01-30T14:24:03.337Z,6.33
2018-01-30T14:26:50.243Z,5.90
2018-01-30T14:29:17.819Z,6.07
2018-01-30T14:31:45.319Z,6.00
2018-01-30T14:34:12.838Z,5.90
2018-01-30T14:36:40.409Z,6.30
2018-01-30T14:39:07.894Z,7.07
2018-01-30T14:41:35.443Z,6.90
2018-01-30T14:44:02.966Z,6.53
2018-01-30T14:46:30.422Z,7.00
2018-01-30T14:48:57.998Z,6.43
2018-01-30T14:51:25.503Z,6.63
2018-01-30T14:53:52.978Z,6.53
2018-01-30T14:56:20.434Z,6.77
2018-01-30T14:58:47.914Z,6.67
2018-01-30T15:01:35.494Z,6.13
2018-01-30T15:04:02.990Z,6.57
2018-01-30T15:06:30.539Z,6.10
2018-01-30T15:08:58.114Z,6.30
2018-01-30T15:11:25.579Z,6.03
2018-01-30T15:13:53.051Z,6.23
2018-01-30T15:16:20.541Z,7.40
2018-01-30T15:18:48.239Z,7.57
2018-01-30T15:21:15.741Z,7.20
2018-01-30T15:23:43.301Z,6.53
2018-01-30T15:26:10.771Z,6.37
2018-01-30T15:28:38.282Z,7.53
2018-01-30T15:31:05.763Z,6.93
2018-01-30T15:33:33.242Z,6.67
2018-01-30T15:36:00.823Z,6.63
2018-01-30T15:38:28.297Z,7.37
2018-01-30T15:40:55.911Z,7.13
2018-01-30T15:43:23.399Z,7.33
2018-01-30T15:45:50.946Z,6.60
2018-01-30T15:48:18.410Z,7.17
2018-01-30T15:51:02.426Z,7.13
2018-01-30T15:53:31.834Z,7.47
2018-01-30T15:55:59.316Z,7.90
2018-01-30T15:58:26.767Z,8.80
2018-01-30T16:00:54.261Z,8.43
2018-01-30T16:03:21.758Z,7.30
2018-01-30T16:05:49.269Z,7.37
2018-01-30T16:08:16.811Z,7.57
2018-01-30T16:10:44.287Z,7.40
2018-01-30T16:13:11.771Z,7.57
2018-01-30T16:15:39.362Z,7.47
2018-01-30T16:18:06.949Z,7.77
2018-01-30T16:20:34.444Z,7.83
2018-01-30T16:23:01.937Z,7.67
2018-01-30T16:25:29.426Z,7.87
2018-01-30T16:27:56.899Z,8.10
2018-01-30T16:30:24.455Z,8.03
2018-01-30T16:32:51.911Z,8.83
2018-01-30T16:35:19.385Z,7.70
2018-01-30T16:37:46.842Z,8.07
2018-01-30T16:40:14.339Z,8.47
2018-01-30T16:42:41.854Z,8.03
2018-01-30T16:45:09.350Z,7.93
2018-01-30T16:47:53.572Z,8.30
2018-01-30T16:50:27.630Z,7.93
2018-01-30T16:52:55.155Z,8.13
2018-01-30T16:55:22.668Z,8.43
2018-01-30T16:57:50.183Z,7.40
2018-01-30T17:00:17.628Z,7.70
2018-01-30T17:02:45.155Z,7.50
2018-01-30T17:05:12.612Z,8.00
2018-01-30T17:07:40.153Z,7.77
2018-01-30T17:10:07.746Z,11.50
2018-01-30T17:12:35.271Z,8.33
2018-01-30T17:15:03.167Z,7.90
2018-01-30T17:17:30.727Z,8.33
2018-01-30T17:19:58.308Z,8.27
2018-01-30T17:25:05.266Z,8.23
2018-01-30T17:30:18.851Z,7.37
2018-01-30T17:32:59.830Z,8.13
2018-01-30T17:38:13.452Z,7.97
2018-01-30T17:49:54.396Z,6.90
2018-01-30T17:52:46.224Z,7.93
2018-01-30T17:55:13.686Z,7.37
2018-01-30T17:57:41.178Z,6.97
2018-01-30T18:00:08.630Z,7.83
2018-01-30T18:02:36.109Z,7.80
2018-01-30T18:05:03.566Z,8.10
2018-01-30T18:07:31.048Z,8.73
2018-01-30T18:09:58.508Z,8.90
2018-01-30T18:12:25.992Z,7.97
2018-01-30T18:14:53.475Z,8.10
2018-01-30T18:17:20.955Z,7.07
2018-01-30T18:19:48.426Z,7.07
2018-01-30T18:22:15.910Z,7.03
2018-01-30T18:24:43.366Z,6.40
2018-01-30T18:27:10.846Z,6.10
2018-01-30T18:29:38.294Z,5.80
2018-01-30T18:32:05.763Z,5.73
2018-01-30T18:34:33.211Z,5.47
2018-01-30T18:37:01.292Z,6.63
2018-01-30T18:39:28.899Z,8.97
2018-01-30T18:41:56.468Z,6.67
2018-01-30T18:44:24.022Z,5.90
2018-01-30T18:46:51.664Z,5.47
2018-01-30T18:49:19.202Z,5.00
2018-01-30T18:51:46.749Z,4.90
2018-01-30T18:54:14.371Z,4.37
2018-01-30T18:56:42.620Z,4.63
2018-01-30T18:59:10.161Z,4.27
2018-01-30T19:10:39.663Z,4.77
2018-01-30T19:13:07.206Z,7.93
2018-01-30T19:18:27.299Z,6.10
2018-01-30T19:26:59.838Z,4.97
2018-01-30T19:35:42.538Z,4.43
2018-01-30T19:38:12.220Z,4.60
2018-01-30T19:40:48.865Z,4.13
2018-01-30T19:45:57.325Z,4.73
2018-01-30T19:48:25.789Z,4.67
2018-01-30T19:50:53.351Z,4.23
2018-01-30T19:53:23.724Z,4.50
2018-01-30T19:58:38.033Z,4.87
2018-01-30T20:03:46.899Z,5.13
2018-01-30T20:06:14.355Z,4.80
2018-01-30T20:14:36.569Z,5.30
2018-01-30T20:19:56.712Z,5.50
2018-01-30T20:22:24.174Z,5.60
2018-01-30T20:24:51.658Z,6.07
2018-01-30T20:27:19.115Z,6.03
2018-01-30T20:29:46.607Z,6.53
2018-01-30T20:32:14.066Z,6.50
2018-01-30T20:34:41.560Z,6.50
2018-01-30T20:37:14.548Z,6.80
2018-01-30T20:39:42.027Z,6.27
2018-01-30T20:42:09.487Z,6.33
2018-01-30T20:44:36.963Z,6.30
2018-01-30T20:47:04.434Z,6.30
2018-01-30T20:49:31.926Z,6.87
2018-01-30T20:51:59.382Z,7.03
2018-01-30T20:54:26.881Z,7.17
2018-01-30T20:56:54.346Z,6.13
2018-01-30T20:59:21.883Z,6.40
2018-01-30T21:01:49.362Z,7.30
2018-01-30T21:04:16.847Z,7.37
2018-01-30T21:06:44.334Z,7.03
2018-01-30T21:09:11.884Z,6.53
2018-01-30T21:11:39.352Z,6.93
2018-01-30T21:14:06.830Z,7.23
2018-01-30T21:16:34.298Z,7.00
2018-01-30T21:19:01.773Z,6.20
2018-01-30T21:21:29.235Z,6.10
2018-01-30T21:23:56.753Z,6.50
2018-01-30T21:26:24.206Z,5.70
2018-01-30T21:28:51.677Z,6.30
2018-01-30T21:31:19.155Z,5.53
2018-01-30T21:33:46.624Z,6.03
2018-01-30T21:36:14.107Z,6.57
2018-01-30T21:38:41.562Z,6.50
2018-01-30T21:41:09.039Z,5.80
2018-01-30T21:43:36.495Z,6.30
2018-01-30T21:46:03.975Z,5.47
2018-01-30T21:48:31.447Z,6.00
2018-01-30T21:50:58.930Z,6.00
2018-01-30T21:53:26.391Z,6.10
2018-01-30T21:55:53.868Z,5.73
2018-01-30T21:58:21.395Z,5.90
2018-01-30T22:00:48.917Z,6.20
2018-01-30T22:03:16.354Z,6.30
2018-01-30T22:05:43.827Z,6.40
2018-01-30T22:08:11.393Z,6.93
2018-01-30T22:10:38.794Z,7.17
2018-01-30T22:13:06.250Z,7.30
2018-01-30T22:15:33.732Z,7.90
2018-01-30T22:18:01.182Z,7.50
2018-01-30T22:20:28.659Z,7.47
2018-01-30T22:22:56.114Z,7.33
2018-01-30T22:25:23.598Z,7.10
2018-01-30T22:27:51.054Z,7.67
2018-01-30T22:30:18.539Z,7.77
2018-01-30T22:32:45.999Z,8.47
2018-01-30T22:35:13.479Z,8.90
2018-01-30T22:37:40.941Z,8.63
2018-01-30T22:40:08.419Z,9.37
2018-01-30T22:42:35.879Z,8.93
2018-01-30T22:45:03.370Z,8.73
